sensor_id;sensor_type;location;lat;lon;timestamp;P1;durP1;ratioP1;P2;durP2;ratioP2
11328;SDS011;5719;42.714;23.732;2022-09-28T00:02:02;11.15;;;4.70;;
11328;SDS011;5719;42.714;23.732;2022-09-28T00:04:29;6.10;;;5.50;;
11328;SDS011;5719;42.714;23.732;2022-09-28T00:06:57;7.57;;;4.95;;
11328;SDS011;5719;42.714;23.732;2022-09-28T00:09:24;4.25;;;3.90;;
11328;SDS011;5719;42.714;23.732;2022-09-28T00:11:51;5.80;;;4.13;;
11328;SDS011;5719;42.714;23.732;2022-09-28T00:14:19;7.25;;;3.60;;
11328;SDS011;5719;42.714;23.732;2022-09-28T00:16:48;4.25;;;3.55;;
11328;SDS011;5719;42.714;23.732;2022-09-28T00:19:15;4.70;;;3.83;;
11328;SDS011;5719;42.714;23.732;2022-09-28T00:21:42;5.25;;;3.65;;
11328;SDS011;5719;42.714;23.732;2022-09-28T00:24:10;4.93;;;3.45;;
11328;SDS011;5719;42.714;23.732;2022-09-28T00:26:40;3.92;;;3.53;;
11328;SDS011;5719;42.714;23.732;2022-09-28T00:29:19;8.82;;;4.35;;
11328;SDS011;5719;42.714;23.732;2022-09-28T00:31:49;9.35;;;4.53;;
11328;SDS011;5719;42.714;23.732;2022-09-28T00:34:18;7.35;;;4.10;;
11328;SDS011;5719;42.714;23.732;2022-09-28T00:36:45;6.65;;;4.35;;
11328;SDS011;5719;42.714;23.732;2022-09-28T00:39:14;5.25;;;4.15;;
11328;SDS011;5719;42.714;23.732;2022-09-28T00:41:41;6.65;;;5.10;;
11328;SDS011;5719;42.714;23.732;2022-09-28T00:47:05;5.75;;;4.50;;
11328;SDS011;5719;42.714;23.732;2022-09-28T00:49:36;6.07;;;4.25;;
11328;SDS011;5719;42.714;23.732;2022-09-28T00:52:08;5.68;;;4.07;;
11328;SDS011;5719;42.714;23.732;2022-09-28T00:54:39;5.35;;;3.97;;
11328;SDS011;5719;42.714;23.732;2022-09-28T00:57:11;5.25;;;3.95;;
11328;SDS011;5719;42.714;23.732;2022-09-28T00:59:39;7.97;;;3.97;;
11328;SDS011;5719;42.714;23.732;2022-09-28T01:02:08;10.23;;;4.03;;
11328;SDS011;5719;42.714;23.732;2022-09-28T01:04:36;9.90;;;4.50;;
11328;SDS011;5719;42.714;23.732;2022-09-28T01:07:04;7.43;;;4.40;;
11328;SDS011;5719;42.714;23.732;2022-09-28T01:09:34;7.35;;;3.72;;
11328;SDS011;5719;42.714;23.732;2022-09-28T01:12:04;6.72;;;3.50;;
11328;SDS011;5719;42.714;23.732;2022-09-28T01:14:31;8.15;;;3.60;;
11328;SDS011;5719;42.714;23.732;2022-09-28T01:17:00;5.60;;;3.60;;
11328;SDS011;5719;42.714;23.732;2022-09-28T01:23:08;13.02;;;6.07;;
11328;SDS011;5719;42.714;23.732;2022-09-28T01:26:30;25.25;;;9.52;;
11328;SDS011;5719;42.714;23.732;2022-09-28T01:29:18;29.98;;;13.18;;
11328;SDS011;5719;42.714;23.732;2022-09-28T01:31:58;37.13;;;12.93;;
11328;SDS011;5719;42.714;23.732;2022-09-28T01:34:34;33.97;;;11.50;;
11328;SDS011;5719;42.714;23.732;2022-09-28T01:37:05;24.33;;;10.07;;
11328;SDS011;5719;42.714;23.732;2022-09-28T01:39:39;14.75;;;6.55;;
11328;SDS011;5719;42.714;23.732;2022-09-28T01:42:13;10.82;;;4.43;;
11328;SDS011;5719;42.714;23.732;2022-09-28T01:44:45;4.43;;;3.78;;
11328;SDS011;5719;42.714;23.732;2022-09-28T01:47:19;9.60;;;5.13;;
11328;SDS011;5719;42.714;23.732;2022-09-28T01:49:49;8.43;;;4.60;;
11328;SDS011;5719;42.714;23.732;2022-09-28T01:52:24;6.47;;;4.00;;
11328;SDS011;5719;42.714;23.732;2022-09-28T01:54:55;11.10;;;3.90;;
11328;SDS011;5719;42.714;23.732;2022-09-28T01:57:29;4.53;;;2.72;;
11328;SDS011;5719;42.714;23.732;2022-09-28T02:00:04;3.20;;;2.90;;
11328;SDS011;5719;42.714;23.732;2022-09-28T02:02:51;6.32;;;2.80;;
11328;SDS011;5719;42.714;23.732;2022-09-28T02:05:23;5.78;;;2.85;;
11328;SDS011;5719;42.714;23.732;2022-09-28T02:07:56;3.22;;;2.92;;
11328;SDS011;5719;42.714;23.732;2022-09-28T02:10:29;9.05;;;4.13;;
11328;SDS011;5719;42.714;23.732;2022-09-28T02:13:03;10.30;;;3.88;;
11328;SDS011;5719;42.714;23.732;2022-09-28T02:15:35;10.67;;;5.47;;
11328;SDS011;5719;42.714;23.732;2022-09-28T02:18:11;11.80;;;5.00;;
11328;SDS011;5719;42.714;23.732;2022-09-28T02:20:39;6.10;;;4.32;;
11328;SDS011;5719;42.714;23.732;2022-09-28T02:23:08;8.05;;;4.55;;
11328;SDS011;5719;42.714;23.732;2022-09-28T02:25:37;9.43;;;4.10;;
11328;SDS011;5719;42.714;23.732;2022-09-28T02:28:08;3.78;;;3.40;;
11328;SDS011;5719;42.714;23.732;2022-09-28T02:30:38;7.53;;;3.53;;
11328;SDS011;5719;42.714;23.732;2022-09-28T02:46:19;3.67;;;3.13;;
11328;SDS011;5719;42.714;23.732;2022-09-28T02:48:59;4.60;;;2.80;;
11328;SDS011;5719;42.714;23.732;2022-09-28T02:51:37;7.95;;;2.70;;
11328;SDS011;5719;42.714;23.732;2022-09-28T02:54:21;3.63;;;2.90;;
11328;SDS011;5719;42.714;23.732;2022-09-28T02:57:06;7.00;;;2.97;;
11328;SDS011;5719;42.714;23.732;2022-09-28T02:59:48;5.13;;;2.95;;
11328;SDS011;5719;42.714;23.732;2022-09-28T03:02:26;8.57;;;5.10;;
11328;SDS011;5719;42.714;23.732;2022-09-28T03:05:03;9.93;;;5.35;;
11328;SDS011;5719;42.714;23.732;2022-09-28T03:07:38;3.97;;;2.88;;
11328;SDS011;5719;42.714;23.732;2022-09-28T03:10:12;7.75;;;3.08;;
11328;SDS011;5719;42.714;23.732;2022-09-28T03:12:43;5.95;;;3.15;;
11328;SDS011;5719;42.714;23.732;2022-09-28T03:15:13;3.53;;;3.33;;
11328;SDS011;5719;42.714;23.732;2022-09-28T03:17:47;9.23;;;2.95;;
11328;SDS011;5719;42.714;23.732;2022-09-28T03:20:14;13.38;;;3.72;;
11328;SDS011;5719;42.714;23.732;2022-09-28T03:22:41;5.43;;;3.15;;
11328;SDS011;5719;42.714;23.732;2022-09-28T03:25:08;7.05;;;4.00;;
11328;SDS011;5719;42.714;23.732;2022-09-28T03:27:36;14.90;;;8.20;;
11328;SDS011;5719;42.714;23.732;2022-09-28T03:30:03;23.73;;;9.52;;
11328;SDS011;5719;42.714;23.732;2022-09-28T03:32:31;19.85;;;9.70;;
11328;SDS011;5719;42.714;23.732;2022-09-28T03:34:59;15.80;;;7.85;;
11328;SDS011;5719;42.714;23.732;2022-09-28T03:37:26;13.45;;;6.80;;
11328;SDS011;5719;42.714;23.732;2022-09-28T03:39:53;9.73;;;6.20;;
11328;SDS011;5719;42.714;23.732;2022-09-28T03:42:20;9.90;;;5.20;;
11328;SDS011;5719;42.714;23.732;2022-09-28T03:44:47;6.03;;;4.40;;
11328;SDS011;5719;42.714;23.732;2022-09-28T03:47:14;9.52;;;4.47;;
11328;SDS011;5719;42.714;23.732;2022-09-28T03:49:42;6.03;;;4.20;;
11328;SDS011;5719;42.714;23.732;2022-09-28T03:52:11;10.38;;;4.40;;
11328;SDS011;5719;42.714;23.732;2022-09-28T03:54:39;6.45;;;4.00;;
11328;SDS011;5719;42.714;23.732;2022-09-28T03:57:06;7.28;;;4.20;;
11328;SDS011;5719;42.714;23.732;2022-09-28T03:59:33;8.18;;;3.63;;
11328;SDS011;5719;42.714;23.732;2022-09-28T04:02:02;2.78;;;2.58;;
11328;SDS011;5719;42.714;23.732;2022-09-28T04:04:30;4.28;;;3.13;;
11328;SDS011;5719;42.714;23.732;2022-09-28T04:06:57;7.80;;;3.38;;
11328;SDS011;5719;42.714;23.732;2022-09-28T04:09:25;3.10;;;2.80;;
11328;SDS011;5719;42.714;23.732;2022-09-28T04:11:52;5.93;;;3.30;;
11328;SDS011;5719;42.714;23.732;2022-09-28T04:14:19;3.70;;;3.33;;
11328;SDS011;5719;42.714;23.732;2022-09-28T04:16:45;6.85;;;4.40;;
11328;SDS011;5719;42.714;23.732;2022-09-28T04:19:13;6.03;;;4.18;;
11328;SDS011;5719;42.714;23.732;2022-09-28T04:21:40;11.75;;;8.02;;
11328;SDS011;5719;42.714;23.732;2022-09-28T04:24:07;16.55;;;5.97;;
11328;SDS011;5719;42.714;23.732;2022-09-28T04:26:37;7.55;;;5.93;;
11328;SDS011;5719;42.714;23.732;2022-09-28T04:29:04;8.95;;;6.20;;
11328;SDS011;5719;42.714;23.732;2022-09-28T04:31:43;10.75;;;5.97;;
11328;SDS011;5719;42.714;23.732;2022-09-28T04:34:12;10.00;;;6.30;;
11328;SDS011;5719;42.714;23.732;2022-09-28T04:36:41;13.57;;;5.30;;
11328;SDS011;5719;42.714;23.732;2022-09-28T04:39:09;10.95;;;5.50;;
11328;SDS011;5719;42.714;23.732;2022-09-28T04:41:37;7.00;;;5.40;;
11328;SDS011;5719;42.714;23.732;2022-09-28T04:44:04;9.55;;;4.72;;
11328;SDS011;5719;42.714;23.732;2022-09-28T04:46:31;18.65;;;5.32;;
11328;SDS011;5719;42.714;23.732;2022-09-28T04:48:58;9.07;;;5.75;;
11328;SDS011;5719;42.714;23.732;2022-09-28T04:51:25;8.70;;;5.57;;
11328;SDS011;5719;42.714;23.732;2022-09-28T04:53:52;9.02;;;5.43;;
11328;SDS011;5719;42.714;23.732;2022-09-28T04:56:20;6.72;;;5.18;;
11328;SDS011;5719;42.714;23.732;2022-09-28T04:58:49;7.25;;;5.00;;
11328;SDS011;5719;42.714;23.732;2022-09-28T05:01:16;6.78;;;4.30;;
11328;SDS011;5719;42.714;23.732;2022-09-28T05:03:47;8.07;;;4.32;;
11328;SDS011;5719;42.714;23.732;2022-09-28T05:06:14;5.80;;;4.22;;
11328;SDS011;5719;42.714;23.732;2022-09-28T05:08:41;8.13;;;3.92;;
11328;SDS011;5719;42.714;23.732;2022-09-28T05:11:11;5.03;;;3.72;;
11328;SDS011;5719;42.714;23.732;2022-09-28T05:13:40;6.32;;;3.28;;
11328;SDS011;5719;42.714;23.732;2022-09-28T05:16:11;6.00;;;3.53;;
11328;SDS011;5719;42.714;23.732;2022-09-28T05:18:39;6.93;;;3.70;;
11328;SDS011;5719;42.714;23.732;2022-09-28T05:21:09;89.10;;;26.33;;
11328;SDS011;5719;42.714;23.732;2022-09-28T05:23:36;63.38;;;22.73;;
11328;SDS011;5719;42.714;23.732;2022-09-28T05:26:03;49.90;;;19.60;;
11328;SDS011;5719;42.714;23.732;2022-09-28T05:28:31;32.08;;;12.55;;
11328;SDS011;5719;42.714;23.732;2022-09-28T05:30:58;9.00;;;5.13;;
11328;SDS011;5719;42.714;23.732;2022-09-28T05:33:27;5.88;;;3.08;;
11328;SDS011;5719;42.714;23.732;2022-09-28T05:35:55;6.28;;;3.13;;
11328;SDS011;5719;42.714;23.732;2022-09-28T05:38:22;4.95;;;3.20;;
11328;SDS011;5719;42.714;23.732;2022-09-28T05:40:49;4.40;;;3.00;;
11328;SDS011;5719;42.714;23.732;2022-09-28T05:43:16;3.50;;;3.00;;
11328;SDS011;5719;42.714;23.732;2022-09-28T05:45:44;5.80;;;3.10;;
11328;SDS011;5719;42.714;23.732;2022-09-28T05:48:11;4.60;;;3.00;;
11328;SDS011;5719;42.714;23.732;2022-09-28T05:50:40;4.82;;;3.08;;
11328;SDS011;5719;42.714;23.732;2022-09-28T05:53:07;3.65;;;3.00;;
11328;SDS011;5719;42.714;23.732;2022-09-28T05:55:35;7.10;;;2.85;;
11328;SDS011;5719;42.714;23.732;2022-09-28T05:58:04;7.80;;;3.17;;
11328;SDS011;5719;42.714;23.732;2022-09-28T06:00:32;4.43;;;2.80;;
11328;SDS011;5719;42.714;23.732;2022-09-28T06:03:01;6.93;;;2.80;;
11328;SDS011;5719;42.714;23.732;2022-09-28T06:05:29;3.60;;;2.90;;
11328;SDS011;5719;42.714;23.732;2022-09-28T06:07:58;3.47;;;2.40;;
11328;SDS011;5719;42.714;23.732;2022-09-28T06:10:25;4.25;;;2.55;;
11328;SDS011;5719;42.714;23.732;2022-09-28T06:12:54;5.60;;;2.45;;
11328;SDS011;5719;42.714;23.732;2022-09-28T06:15:22;2.63;;;2.42;;
11328;SDS011;5719;42.714;23.732;2022-09-28T06:17:54;3.53;;;2.40;;
11328;SDS011;5719;42.714;23.732;2022-09-28T06:20:21;13.48;;;3.03;;
11328;SDS011;5719;42.714;23.732;2022-09-28T06:22:49;6.53;;;2.40;;
11328;SDS011;5719;42.714;23.732;2022-09-28T06:25:18;5.38;;;2.60;;
11328;SDS011;5719;42.714;23.732;2022-09-28T06:27:53;4.95;;;2.28;;
11328;SDS011;5719;42.714;23.732;2022-09-28T06:30:21;3.45;;;2.33;;
11328;SDS011;5719;42.714;23.732;2022-09-28T06:32:51;2.70;;;2.50;;
11328;SDS011;5719;42.714;23.732;2022-09-28T06:35:19;3.90;;;2.33;;
11328;SDS011;5719;42.714;23.732;2022-09-28T06:37:46;6.05;;;3.33;;
11328;SDS011;5719;42.714;23.732;2022-09-28T06:40:13;4.22;;;2.90;;
11328;SDS011;5719;42.714;23.732;2022-09-28T06:42:42;6.75;;;2.40;;
11328;SDS011;5719;42.714;23.732;2022-09-28T06:45:09;3.00;;;2.25;;
11328;SDS011;5719;42.714;23.732;2022-09-28T06:47:36;2.47;;;2.28;;
11328;SDS011;5719;42.714;23.732;2022-09-28T06:50:04;4.15;;;2.00;;
11328;SDS011;5719;42.714;23.732;2022-09-28T06:52:36;5.38;;;1.85;;
11328;SDS011;5719;42.714;23.732;2022-09-28T06:55:04;3.17;;;1.70;;
11328;SDS011;5719;42.714;23.732;2022-09-28T06:57:31;5.05;;;1.80;;
11328;SDS011;5719;42.714;23.732;2022-09-28T07:00:00;4.85;;;1.40;;
11328;SDS011;5719;42.714;23.732;2022-09-28T07:02:27;5.57;;;1.63;;
11328;SDS011;5719;42.714;23.732;2022-09-28T07:04:55;4.05;;;1.42;;
11328;SDS011;5719;42.714;23.732;2022-09-28T07:07:23;2.35;;;1.50;;
11328;SDS011;5719;42.714;23.732;2022-09-28T07:09:52;6.00;;;1.50;;
11328;SDS011;5719;42.714;23.732;2022-09-28T07:12:19;5.05;;;1.73;;
11328;SDS011;5719;42.714;23.732;2022-09-28T07:14:47;6.40;;;1.65;;
11328;SDS011;5719;42.714;23.732;2022-09-28T07:17:21;1.30;;;1.20;;
11328;SDS011;5719;42.714;23.732;2022-09-28T07:19:48;4.13;;;1.70;;
11328;SDS011;5719;42.714;23.732;2022-09-28T07:22:17;3.85;;;1.40;;
11328;SDS011;5719;42.714;23.732;2022-09-28T07:24:44;5.38;;;1.65;;
11328;SDS011;5719;42.714;23.732;2022-09-28T07:27:12;3.88;;;1.67;;
11328;SDS011;5719;42.714;23.732;2022-09-28T07:29:39;4.35;;;1.60;;
11328;SDS011;5719;42.714;23.732;2022-09-28T07:32:06;8.00;;;1.60;;
11328;SDS011;5719;42.714;23.732;2022-09-28T07:34:35;2.05;;;1.58;;
11328;SDS011;5719;42.714;23.732;2022-09-28T07:37:05;1.55;;;1.45;;
11328;SDS011;5719;42.714;23.732;2022-09-28T07:39:36;5.05;;;1.63;;
11328;SDS011;5719;42.714;23.732;2022-09-28T07:42:16;3.33;;;1.63;;
11328;SDS011;5719;42.714;23.732;2022-09-28T07:44:43;3.78;;;1.40;;
11328;SDS011;5719;42.714;23.732;2022-09-28T07:47:10;3.20;;;1.70;;
11328;SDS011;5719;42.714;23.732;2022-09-28T07:49:39;7.53;;;1.42;;
11328;SDS011;5719;42.714;23.732;2022-09-28T07:52:06;3.38;;;1.30;;
11328;SDS011;5719;42.714;23.732;2022-09-28T07:54:33;4.30;;;1.35;;
11328;SDS011;5719;42.714;23.732;2022-09-28T07:57:00;5.78;;;1.80;;
11328;SDS011;5719;42.714;23.732;2022-09-28T07:59:28;7.32;;;1.50;;
11328;SDS011;5719;42.714;23.732;2022-09-28T08:01:55;1.75;;;1.50;;
11328;SDS011;5719;42.714;23.732;2022-09-28T08:04:23;2.38;;;1.45;;
11328;SDS011;5719;42.714;23.732;2022-09-28T08:06:51;2.10;;;1.40;;
11328;SDS011;5719;42.714;23.732;2022-09-28T08:09:18;2.45;;;1.67;;
11328;SDS011;5719;42.714;23.732;2022-09-28T08:11:45;2.88;;;1.30;;
11328;SDS011;5719;42.714;23.732;2022-09-28T08:14:12;2.95;;;1.70;;
11328;SDS011;5719;42.714;23.732;2022-09-28T08:16:39;5.65;;;1.45;;
11328;SDS011;5719;42.714;23.732;2022-09-28T08:19:07;3.58;;;1.58;;
11328;SDS011;5719;42.714;23.732;2022-09-28T08:21:34;1.98;;;1.38;;
11328;SDS011;5719;42.714;23.732;2022-09-28T08:24:11;6.50;;;1.50;;
11328;SDS011;5719;42.714;23.732;2022-09-28T08:26:38;1.98;;;1.30;;
11328;SDS011;5719;42.714;23.732;2022-09-28T08:29:06;4.18;;;1.50;;
11328;SDS011;5719;42.714;23.732;2022-09-28T08:31:33;2.00;;;1.70;;
11328;SDS011;5719;42.714;23.732;2022-09-28T08:34:00;2.70;;;1.27;;
11328;SDS011;5719;42.714;23.732;2022-09-28T08:36:27;2.55;;;1.60;;
11328;SDS011;5719;42.714;23.732;2022-09-28T08:38:54;3.90;;;1.45;;
11328;SDS011;5719;42.714;23.732;2022-09-28T08:41:25;5.07;;;1.60;;
11328;SDS011;5719;42.714;23.732;2022-09-28T08:44:11;6.03;;;1.88;;
11328;SDS011;5719;42.714;23.732;2022-09-28T08:46:48;6.60;;;2.08;;
11328;SDS011;5719;42.714;23.732;2022-09-28T08:49:22;4.05;;;1.73;;
11328;SDS011;5719;42.714;23.732;2022-09-28T08:54:26;7.47;;;2.03;;
11328;SDS011;5719;42.714;23.732;2022-09-28T08:57:00;8.52;;;2.10;;
11328;SDS011;5719;42.714;23.732;2022-09-28T08:59:35;4.30;;;1.95;;
11328;SDS011;5719;42.714;23.732;2022-09-28T09:02:12;7.78;;;1.80;;
11328;SDS011;5719;42.714;23.732;2022-09-28T09:04:43;12.75;;;1.90;;
11328;SDS011;5719;42.714;23.732;2022-09-28T09:07:16;6.55;;;1.65;;
11328;SDS011;5719;42.714;23.732;2022-09-28T09:10:03;4.88;;;1.63;;
11328;SDS011;5719;42.714;23.732;2022-09-28T09:12:42;2.15;;;1.00;;
11328;SDS011;5719;42.714;23.732;2022-09-28T09:15:20;4.43;;;1.33;;
11328;SDS011;5719;42.714;23.732;2022-09-28T09:17:59;2.22;;;1.20;;
11328;SDS011;5719;42.714;23.732;2022-09-28T09:20:37;2.97;;;1.30;;
11328;SDS011;5719;42.714;23.732;2022-09-28T09:23:15;2.10;;;1.35;;
11328;SDS011;5719;42.714;23.732;2022-09-28T09:25:46;1.83;;;1.10;;
11328;SDS011;5719;42.714;23.732;2022-09-28T09:31:30;3.33;;;1.25;;
11328;SDS011;5719;42.714;23.732;2022-09-28T09:34:11;3.78;;;1.10;;
11328;SDS011;5719;42.714;23.732;2022-09-28T09:36:53;4.80;;;1.20;;
11328;SDS011;5719;42.714;23.732;2022-09-28T09:39:37;4.82;;;1.30;;
11328;SDS011;5719;42.714;23.732;2022-09-28T09:42:20;4.22;;;1.30;;
11328;SDS011;5719;42.714;23.732;2022-09-28T09:45:20;4.55;;;0.90;;
11328;SDS011;5719;42.714;23.732;2022-09-28T09:47:56;2.33;;;0.95;;
11328;SDS011;5719;42.714;23.732;2022-09-28T09:50:27;3.42;;;1.20;;
11328;SDS011;5719;42.714;23.732;2022-09-28T09:52:57;6.63;;;1.15;;
11328;SDS011;5719;42.714;23.732;2022-09-28T09:55:28;7.80;;;1.20;;
11328;SDS011;5719;42.714;23.732;2022-09-28T09:58:01;3.55;;;1.10;;
11328;SDS011;5719;42.714;23.732;2022-09-28T10:00:36;4.82;;;1.00;;
11328;SDS011;5719;42.714;23.732;2022-09-28T10:03:05;4.35;;;0.95;;
11328;SDS011;5719;42.714;23.732;2022-09-28T10:05:38;6.50;;;1.42;;
11328;SDS011;5719;42.714;23.732;2022-09-28T10:08:10;3.42;;;1.38;;
11328;SDS011;5719;42.714;23.732;2022-09-28T10:10:43;2.45;;;0.98;;
11328;SDS011;5719;42.714;23.732;2022-09-28T10:13:14;1.77;;;0.80;;
11328;SDS011;5719;42.714;23.732;2022-09-28T10:15:42;2.35;;;1.00;;
11328;SDS011;5719;42.714;23.732;2022-09-28T10:18:12;4.53;;;0.90;;
11328;SDS011;5719;42.714;23.732;2022-09-28T10:20:41;2.35;;;1.00;;
11328;SDS011;5719;42.714;23.732;2022-09-28T10:23:11;6.07;;;1.13;;
11328;SDS011;5719;42.714;23.732;2022-09-28T10:25:47;1.25;;;1.00;;
11328;SDS011;5719;42.714;23.732;2022-09-28T10:28:18;4.25;;;0.75;;
11328;SDS011;5719;42.714;23.732;2022-09-28T10:30:59;2.58;;;0.82;;
11328;SDS011;5719;42.714;23.732;2022-09-28T10:33:46;4.45;;;0.80;;
11328;SDS011;5719;42.714;23.732;2022-09-28T10:36:13;2.63;;;0.80;;
11328;SDS011;5719;42.714;23.732;2022-09-28T10:49:24;1.88;;;0.70;;
11328;SDS011;5719;42.714;23.732;2022-09-28T10:51:53;4.40;;;1.10;;
11328;SDS011;5719;42.714;23.732;2022-09-28T10:54:22;4.30;;;1.00;;
11328;SDS011;5719;42.714;23.732;2022-09-28T10:56:51;1.60;;;0.77;;
11328;SDS011;5719;42.714;23.732;2022-09-28T10:59:23;4.20;;;0.90;;
11328;SDS011;5719;42.714;23.732;2022-09-28T11:02:02;1.13;;;0.90;;
11328;SDS011;5719;42.714;23.732;2022-09-28T11:04:39;7.15;;;0.80;;
11328;SDS011;5719;42.714;23.732;2022-09-28T11:07:12;3.97;;;0.93;;
11328;SDS011;5719;42.714;23.732;2022-09-28T11:09:45;6.43;;;1.02;;
11328;SDS011;5719;42.714;23.732;2022-09-28T11:12:14;1.55;;;0.73;;
11328;SDS011;5719;42.714;23.732;2022-09-28T11:14:43;1.70;;;0.77;;
11328;SDS011;5719;42.714;23.732;2022-09-28T11:17:17;1.67;;;0.63;;
11328;SDS011;5719;42.714;23.732;2022-09-28T11:19:53;3.38;;;0.90;;
11328;SDS011;5719;42.714;23.732;2022-09-28T11:22:22;3.72;;;1.00;;
11328;SDS011;5719;42.714;23.732;2022-09-28T11:25:06;2.15;;;0.85;;
11328;SDS011;5719;42.714;23.732;2022-09-28T11:27:39;2.30;;;0.80;;
11328;SDS011;5719;42.714;23.732;2022-09-28T11:30:15;2.05;;;0.80;;
11328;SDS011;5719;42.714;23.732;2022-09-28T11:32:48;3.70;;;1.00;;
11328;SDS011;5719;42.714;23.732;2022-09-28T11:35:18;2.08;;;1.10;;
11328;SDS011;5719;42.714;23.732;2022-09-28T11:37:51;4.55;;;0.70;;
11328;SDS011;5719;42.714;23.732;2022-09-28T11:40:33;2.67;;;1.33;;
11328;SDS011;5719;42.714;23.732;2022-09-28T11:43:12;1.92;;;0.73;;
11328;SDS011;5719;42.714;23.732;2022-09-28T11:45:48;3.42;;;0.70;;
11328;SDS011;5719;42.714;23.732;2022-09-28T11:48:21;4.38;;;0.68;;
11328;SDS011;5719;42.714;23.732;2022-09-28T11:50:53;1.73;;;0.80;;
11328;SDS011;5719;42.714;23.732;2022-09-28T11:53:24;1.58;;;0.70;;
11328;SDS011;5719;42.714;23.732;2022-09-28T11:55:57;1.85;;;0.70;;
11328;SDS011;5719;42.714;23.732;2022-09-28T11:58:31;2.42;;;0.77;;
11328;SDS011;5719;42.714;23.732;2022-09-28T12:01:02;0.88;;;0.75;;
11328;SDS011;5719;42.714;23.732;2022-09-28T12:06:07;1.67;;;0.80;;
11328;SDS011;5719;42.714;23.732;2022-09-28T12:08:42;1.55;;;0.73;;
11328;SDS011;5719;42.714;23.732;2022-09-28T12:11:16;4.25;;;0.75;;
11328;SDS011;5719;42.714;23.732;2022-09-28T12:13:48;1.25;;;0.60;;
11328;SDS011;5719;42.714;23.732;2022-09-28T12:16:18;1.73;;;0.80;;
11328;SDS011;5719;42.714;23.732;2022-09-28T12:18:49;2.15;;;0.70;;
11328;SDS011;5719;42.714;23.732;2022-09-28T12:21:33;3.40;;;0.80;;
11328;SDS011;5719;42.714;23.732;2022-09-28T12:24:05;3.42;;;0.88;;
11328;SDS011;5719;42.714;23.732;2022-09-28T12:26:43;0.93;;;0.65;;
11328;SDS011;5719;42.714;23.732;2022-09-28T12:29:16;1.92;;;0.80;;
11328;SDS011;5719;42.714;23.732;2022-09-28T12:34:38;4.82;;;0.80;;
11328;SDS011;5719;42.714;23.732;2022-09-28T12:40:18;3.22;;;1.20;;
11328;SDS011;5719;42.714;23.732;2022-09-28T12:42:57;1.48;;;0.73;;
11328;SDS011;5719;42.714;23.732;2022-09-28T12:45:37;2.25;;;1.00;;
11328;SDS011;5719;42.714;23.732;2022-09-28T12:48:31;2.63;;;0.80;;
11328;SDS011;5719;42.714;23.732;2022-09-28T12:51:13;2.80;;;1.10;;
11328;SDS011;5719;42.714;23.732;2022-09-28T12:53:59;2.88;;;0.93;;
11328;SDS011;5719;42.714;23.732;2022-09-28T12:56:36;2.47;;;1.08;;
11328;SDS011;5719;42.714;23.732;2022-09-28T13:01:55;5.00;;;1.00;;
11328;SDS011;5719;42.714;23.732;2022-09-28T13:16:28;3.83;;;1.30;;
11328;SDS011;5719;42.714;23.732;2022-09-28T13:19:02;6.43;;;1.67;;
11328;SDS011;5719;42.714;23.732;2022-09-28T13:21:40;4.38;;;1.00;;
11328;SDS011;5719;42.714;23.732;2022-09-28T13:24:15;3.70;;;1.02;;
11328;SDS011;5719;42.714;23.732;2022-09-28T13:26:49;3.85;;;0.75;;
11328;SDS011;5719;42.714;23.732;2022-09-28T13:29:17;2.38;;;1.23;;
11328;SDS011;5719;42.714;23.732;2022-09-28T13:31:48;2.95;;;0.90;;
11328;SDS011;5719;42.714;23.732;2022-09-28T13:34:17;1.73;;;1.13;;
11328;SDS011;5719;42.714;23.732;2022-09-28T13:39:37;1.60;;;1.13;;
11328;SDS011;5719;42.714;23.732;2022-09-28T13:42:23;8.05;;;1.77;;
11328;SDS011;5719;42.714;23.732;2022-09-28T13:48:10;2.15;;;0.90;;
11328;SDS011;5719;42.714;23.732;2022-09-28T13:50:51;5.63;;;1.08;;
11328;SDS011;5719;42.714;23.732;2022-09-28T13:53:42;4.65;;;0.88;;
11328;SDS011;5719;42.714;23.732;2022-09-28T13:56:30;1.70;;;0.85;;
11328;SDS011;5719;42.714;23.732;2022-09-28T13:59:06;3.35;;;1.10;;
11328;SDS011;5719;42.714;23.732;2022-09-28T14:01:42;4.35;;;1.17;;
11328;SDS011;5719;42.714;23.732;2022-09-28T14:04:19;2.25;;;0.93;;
11328;SDS011;5719;42.714;23.732;2022-09-28T14:06:52;2.33;;;1.00;;
11328;SDS011;5719;42.714;23.732;2022-09-28T14:09:25;2.67;;;0.95;;
11328;SDS011;5719;42.714;23.732;2022-09-28T14:15:36;7.07;;;1.30;;
11328;SDS011;5719;42.714;23.732;2022-09-28T14:18:09;9.00;;;1.40;;
11328;SDS011;5719;42.714;23.732;2022-09-28T14:20:47;2.33;;;1.00;;
11328;SDS011;5719;42.714;23.732;2022-09-28T14:23:35;3.55;;;1.00;;
11328;SDS011;5719;42.714;23.732;2022-09-28T14:26:22;3.03;;;1.08;;
11328;SDS011;5719;42.714;23.732;2022-09-28T14:29:09;7.03;;;1.20;;
11328;SDS011;5719;42.714;23.732;2022-09-28T14:31:46;3.72;;;1.05;;
11328;SDS011;5719;42.714;23.732;2022-09-28T14:34:24;3.40;;;1.48;;
11328;SDS011;5719;42.714;23.732;2022-09-28T14:36:57;3.38;;;1.25;;
11328;SDS011;5719;42.714;23.732;2022-09-28T14:39:42;2.08;;;1.42;;
11328;SDS011;5719;42.714;23.732;2022-09-28T14:42:28;5.18;;;1.90;;
11328;SDS011;5719;42.714;23.732;2022-09-28T14:48:03;5.63;;;2.38;;
11328;SDS011;5719;42.714;23.732;2022-09-28T14:50:41;8.27;;;2.00;;
11328;SDS011;5719;42.714;23.732;2022-09-28T14:53:11;2.58;;;1.77;;
11328;SDS011;5719;42.714;23.732;2022-09-28T14:55:44;6.03;;;1.70;;
11328;SDS011;5719;42.714;23.732;2022-09-28T14:58:16;4.00;;;1.50;;
11328;SDS011;5719;42.714;23.732;2022-09-28T15:00:48;2.53;;;1.42;;
11328;SDS011;5719;42.714;23.732;2022-09-28T15:03:19;3.00;;;1.33;;
11328;SDS011;5719;42.714;23.732;2022-09-28T15:05:48;9.20;;;1.60;;
11328;SDS011;5719;42.714;23.732;2022-09-28T15:08:19;4.35;;;1.58;;
11328;SDS011;5719;42.714;23.732;2022-09-28T15:10:47;4.45;;;1.30;;
11328;SDS011;5719;42.714;23.732;2022-09-28T15:13:17;5.57;;;1.70;;
11328;SDS011;5719;42.714;23.732;2022-09-28T15:15:48;2.92;;;1.20;;
11328;SDS011;5719;42.714;23.732;2022-09-28T15:18:26;5.85;;;1.50;;
11328;SDS011;5719;42.714;23.732;2022-09-28T15:21:13;3.28;;;1.40;;
11328;SDS011;5719;42.714;23.732;2022-09-28T15:23:42;3.92;;;1.60;;
11328;SDS011;5719;42.714;23.732;2022-09-28T15:26:21;5.10;;;1.50;;
11328;SDS011;5719;42.714;23.732;2022-09-28T15:28:51;2.97;;;1.60;;
11328;SDS011;5719;42.714;23.732;2022-09-28T15:31:19;8.38;;;1.50;;
11328;SDS011;5719;42.714;23.732;2022-09-28T15:33:48;5.55;;;1.60;;
11328;SDS011;5719;42.714;23.732;2022-09-28T15:36:33;5.65;;;1.30;;
11328;SDS011;5719;42.714;23.732;2022-09-28T15:39:05;1.60;;;1.10;;
11328;SDS011;5719;42.714;23.732;2022-09-28T15:41:38;6.80;;;1.70;;
11328;SDS011;5719;42.714;23.732;2022-09-28T15:44:19;2.08;;;1.30;;
11328;SDS011;5719;42.714;23.732;2022-09-28T15:47:02;3.00;;;1.10;;
11328;SDS011;5719;42.714;23.732;2022-09-28T15:49:35;3.30;;;1.52;;
11328;SDS011;5719;42.714;23.732;2022-09-28T15:52:05;5.95;;;1.60;;
11328;SDS011;5719;42.714;23.732;2022-09-28T15:54:48;8.65;;;2.10;;
11328;SDS011;5719;42.714;23.732;2022-09-28T15:57:30;2.88;;;1.90;;
11328;SDS011;5719;42.714;23.732;2022-09-28T16:00:01;6.35;;;1.70;;
11328;SDS011;5719;42.714;23.732;2022-09-28T16:02:30;4.88;;;2.00;;
11328;SDS011;5719;42.714;23.732;2022-09-28T16:04:58;7.03;;;2.70;;
11328;SDS011;5719;42.714;23.732;2022-09-28T16:07:32;4.18;;;2.80;;
11328;SDS011;5719;42.714;23.732;2022-09-28T16:10:23;6.22;;;2.15;;
11328;SDS011;5719;42.714;23.732;2022-09-28T16:12:55;5.78;;;2.05;;
11328;SDS011;5719;42.714;23.732;2022-09-28T16:15:32;7.40;;;1.98;;
11328;SDS011;5719;42.714;23.732;2022-09-28T16:18:01;4.63;;;2.00;;
11328;SDS011;5719;42.714;23.732;2022-09-28T16:20:33;5.95;;;1.77;;
11328;SDS011;5719;42.714;23.732;2022-09-28T16:23:07;6.25;;;1.80;;
11328;SDS011;5719;42.714;23.732;2022-09-28T16:25:47;10.07;;;3.50;;
11328;SDS011;5719;42.714;23.732;2022-09-28T16:31:23;9.00;;;3.67;;